createdAt,value
2023-01-30T00:01:25.776Z,15.70
2023-01-30T00:03:52.597Z,14.13
2023-01-30T00:06:20.048Z,15.93
2023-01-30T00:08:46.822Z,16.25
2023-01-30T00:11:15.174Z,16.58
2023-01-30T00:13:42.471Z,14.05
2023-01-30T00:16:09.893Z,15.27
2023-01-30T00:18:40.847Z,14.75
2023-01-30T00:21:09.484Z,14.10
2023-01-30T00:23:36.786Z,14.65
2023-01-30T00:26:04.879Z,15.70
2023-01-30T00:28:34.752Z,15.27
2023-01-30T00:31:01.673Z,16.92
2023-01-30T00:33:31.469Z,16.73
2023-01-30T00:35:58.323Z,14.70
2023-01-30T00:38:25.156Z,16.15
2023-01-30T00:40:51.815Z,14.45
2023-01-30T00:43:38.969Z,17.92
2023-01-30T00:46:30.706Z,15.43
2023-01-30T00:48:57.408Z,14.93
2023-01-30T00:51:24.169Z,14.35
2023-01-30T00:53:50.927Z,16.83
2023-01-30T00:56:17.638Z,15.13
2023-01-30T00:58:44.409Z,16.92
2023-01-30T01:01:11.463Z,15.80
2023-01-30T01:03:38.220Z,16.85
2023-01-30T01:06:05.323Z,14.95
2023-01-30T01:08:32.277Z,16.80
2023-01-30T01:10:58.966Z,15.80
2023-01-30T01:13:25.653Z,17.52
2023-01-30T01:15:52.322Z,15.00
2023-01-30T01:18:19.193Z,13.98
2023-01-30T01:20:46.997Z,15.82
2023-01-30T01:23:16.956Z,17.65
2023-01-30T01:25:43.718Z,17.15
2023-01-30T01:28:10.373Z,14.82
2023-01-30T01:30:38.142Z,15.05
2023-01-30T01:33:04.839Z,17.48
2023-01-30T01:35:31.552Z,16.67
2023-01-30T01:37:58.198Z,18.15
2023-01-30T01:40:43.631Z,16.33
2023-01-30T01:43:21.763Z,18.02
2023-01-30T01:46:10.478Z,18.75
2023-01-30T01:48:49.717Z,16.42
2023-01-30T01:51:21.185Z,18.52
2023-01-30T01:53:56.500Z,17.50
2023-01-30T01:56:23.334Z,17.63
2023-01-30T01:59:02.120Z,19.77
2023-01-30T02:01:29.032Z,18.60
2023-01-30T02:03:59.285Z,20.13
2023-01-30T02:06:25.976Z,20.85
2023-01-30T02:08:56.304Z,19.42
2023-01-30T02:11:41.903Z,18.15
2023-01-30T02:14:08.885Z,18.33
2023-01-30T02:16:37.331Z,19.88
2023-01-30T02:19:07.788Z,20.27
2023-01-30T02:22:07.710Z,19.27
2023-01-30T02:25:08.468Z,21.75
2023-01-30T02:27:44.321Z,19.02
2023-01-30T02:30:48.930Z,19.85
2023-01-30T02:33:28.393Z,18.88
2023-01-30T02:36:26.029Z,19.75
2023-01-30T02:39:08.748Z,20.60
2023-01-30T02:41:47.109Z,19.50
2023-01-30T02:44:38.794Z,20.05
2023-01-30T02:47:10.485Z,18.42
2023-01-30T02:49:49.590Z,20.27
2023-01-30T02:52:18.337Z,22.25
2023-01-30T02:54:45.870Z,20.10
2023-01-30T02:57:22.843Z,19.90
2023-01-30T02:59:55.996Z,19.73
2023-01-30T03:02:40.430Z,22.55
2023-01-30T03:05:48.535Z,24.10
2023-01-30T03:08:36.994Z,21.58
2023-01-30T03:11:06.668Z,21.00
2023-01-30T03:13:42.029Z,25.50
2023-01-30T03:16:12.903Z,23.05
2023-01-30T03:18:43.779Z,19.58
2023-01-30T03:21:11.571Z,19.67
2023-01-30T03:23:38.411Z,21.40
2023-01-30T03:26:06.666Z,19.98
2023-01-30T03:28:34.651Z,17.73
2023-01-30T03:31:01.598Z,20.13
2023-01-30T03:33:28.810Z,19.75
2023-01-30T03:36:01.856Z,22.65
2023-01-30T03:38:28.562Z,20.00
2023-01-30T03:40:55.245Z,21.80
2023-01-30T03:43:22.093Z,20.33
2023-01-30T03:45:48.832Z,19.00
2023-01-30T03:48:15.799Z,20.83
2023-01-30T03:50:45.482Z,19.42
2023-01-30T03:53:12.299Z,19.35
2023-01-30T03:55:39.440Z,21.00
2023-01-30T03:58:06.360Z,19.58
2023-01-30T04:00:33.901Z,17.00
2023-01-30T04:03:01.462Z,21.80
2023-01-30T04:05:28.296Z,20.60
2023-01-30T04:08:02.015Z,19.60
2023-01-30T04:10:28.825Z,18.85
2023-01-30T04:12:55.521Z,22.30
2023-01-30T04:15:22.921Z,18.60
2023-01-30T04:18:09.975Z,18.23
2023-01-30T04:20:49.448Z,19.40
2023-01-30T04:23:20.851Z,18.48
2023-01-30T04:25:48.749Z,19.65
2023-01-30T04:28:18.166Z,20.90
2023-01-30T04:30:45.435Z,18.48
2023-01-30T04:33:31.509Z,19.95
2023-01-30T04:36:00.168Z,20.50
2023-01-30T04:38:28.714Z,18.65
2023-01-30T04:40:56.655Z,18.25
2023-01-30T04:43:26.808Z,18.10
2023-01-30T04:46:12.022Z,17.88
2023-01-30T04:48:39.803Z,18.65
2023-01-30T04:51:06.540Z,18.80
2023-01-30T04:53:33.988Z,18.15
2023-01-30T04:56:01.364Z,18.95
2023-01-30T04:58:28.062Z,19.20
2023-01-30T05:00:55.026Z,19.13
2023-01-30T05:03:21.790Z,20.20
2023-01-30T05:05:48.776Z,21.40
2023-01-30T05:08:16.197Z,20.15
2023-01-30T05:10:42.864Z,22.63
2023-01-30T05:13:09.589Z,19.88
2023-01-30T05:15:36.231Z,19.25
2023-01-30T05:18:02.913Z,22.27
2023-01-30T05:20:32.637Z,19.48
2023-01-30T05:22:59.351Z,24.40
2023-01-30T05:25:26.050Z,26.92
2023-01-30T05:27:52.802Z,27.60
2023-01-30T05:30:19.573Z,23.98
2023-01-30T05:32:46.297Z,22.80
2023-01-30T05:35:12.983Z,23.30
2023-01-30T05:37:39.881Z,25.25
2023-01-30T05:40:13.112Z,26.58
2023-01-30T05:42:39.855Z,25.05
2023-01-30T05:45:07.118Z,26.30
2023-01-30T05:47:33.847Z,21.67
2023-01-30T05:50:00.520Z,26.30
2023-01-30T05:52:27.230Z,25.27
2023-01-30T05:54:53.953Z,24.08
2023-01-30T05:57:20.648Z,23.40
2023-01-30T05:59:47.316Z,23.90
2023-01-30T06:02:14.074Z,23.83
2023-01-30T06:04:40.735Z,25.92
2023-01-30T06:07:07.393Z,23.17
2023-01-30T06:09:34.090Z,25.70
2023-01-30T06:12:00.690Z,26.00
2023-01-30T06:14:27.382Z,25.33
2023-01-30T06:16:54.177Z,26.73
2023-01-30T06:19:20.839Z,24.98
2023-01-30T06:21:47.536Z,23.88
2023-01-30T06:24:17.222Z,25.33
2023-01-30T06:26:43.955Z,23.85
2023-01-30T06:29:10.847Z,22.77
2023-01-30T06:31:37.552Z,26.08
2023-01-30T06:34:04.277Z,24.45
2023-01-30T06:36:31.069Z,20.40
2023-01-30T06:38:57.689Z,25.30
2023-01-30T06:41:24.415Z,23.95
2023-01-30T06:43:51.149Z,24.38
2023-01-30T06:46:17.821Z,23.67
2023-01-30T06:48:44.461Z,22.15
2023-01-30T06:51:11.195Z,22.95
2023-01-30T06:53:40.897Z,18.70
2023-01-30T06:56:07.639Z,20.40
2023-01-30T06:58:34.281Z,16.60
2023-01-30T07:01:02.158Z,21.08
2023-01-30T07:03:28.813Z,20.80
2023-01-30T07:05:55.593Z,18.10
2023-01-30T07:08:24.198Z,21.65
2023-01-30T07:10:51.120Z,17.23
2023-01-30T07:13:17.940Z,20.25
2023-01-30T07:15:45.012Z,19.92
2023-01-30T07:18:11.685Z,16.25
2023-01-30T07:20:42.416Z,17.13
2023-01-30T07:23:09.132Z,16.60
2023-01-30T07:25:35.874Z,12.32
2023-01-30T07:28:03.015Z,11.57
2023-01-30T07:30:32.015Z,12.13
2023-01-30T07:33:00.162Z,10.02
2023-01-30T07:35:28.946Z,11.70
2023-01-30T07:37:55.729Z,9.20
2023-01-30T07:40:22.976Z,11.98
2023-01-30T07:43:06.691Z,11.20
2023-01-30T07:46:04.084Z,9.52
2023-01-30T07:48:30.781Z,9.27
2023-01-30T07:50:57.816Z,8.82
2023-01-30T07:53:24.503Z,9.57
2023-01-30T07:55:51.162Z,8.30
2023-01-30T07:58:17.960Z,9.68
2023-01-30T08:00:47.716Z,8.20
2023-01-30T08:03:15.904Z,9.52
2023-01-30T08:05:42.969Z,7.63
2023-01-30T08:08:09.913Z,8.73
2023-01-30T08:10:36.926Z,8.77
2023-01-30T08:13:04.749Z,10.20
2023-01-30T08:15:33.603Z,8.07
2023-01-30T08:18:00.481Z,6.63
2023-01-30T08:20:30.240Z,9.10
2023-01-30T08:22:58.869Z,7.65
2023-01-30T08:25:25.657Z,7.07
2023-01-30T08:27:52.805Z,7.40
2023-01-30T08:30:20.613Z,7.95
2023-01-30T08:32:47.569Z,7.90
2023-01-30T08:35:14.654Z,7.78
2023-01-30T08:37:42.001Z,7.88
2023-01-30T08:40:09.387Z,8.75
2023-01-30T08:42:36.221Z,10.70
2023-01-30T08:45:03.246Z,8.40
2023-01-30T08:47:31.030Z,7.45
2023-01-30T08:49:57.927Z,5.95
2023-01-30T08:52:24.701Z,8.60
2023-01-30T08:54:54.384Z,5.72
2023-01-30T08:57:21.099Z,4.72
2023-01-30T08:59:47.864Z,3.92
2023-01-30T09:02:14.600Z,3.83
2023-01-30T09:04:41.506Z,4.80
2023-01-30T09:07:08.537Z,3.33
2023-01-30T09:09:41.611Z,7.32
2023-01-30T09:12:08.378Z,4.78
2023-01-30T09:14:35.042Z,5.47
2023-01-30T09:17:01.806Z,4.13
2023-01-30T09:19:28.950Z,4.65
2023-01-30T09:21:55.925Z,5.97
2023-01-30T09:24:26.894Z,4.47
2023-01-30T09:26:54.448Z,5.13
2023-01-30T09:29:21.287Z,4.95
2023-01-30T09:31:51.014Z,6.93
2023-01-30T09:34:17.790Z,5.85
2023-01-30T09:36:44.618Z,5.13
2023-01-30T09:39:11.296Z,5.15
2023-01-30T09:42:07.381Z,6.53
2023-01-30T09:44:52.854Z,6.25
2023-01-30T09:47:38.785Z,7.80
2023-01-30T09:50:29.948Z,6.88
2023-01-30T09:53:05.588Z,5.07
2023-01-30T09:55:34.267Z,12.45
2023-01-30T09:58:01.176Z,5.72
2023-01-30T10:00:39.590Z,2.28
2023-01-30T10:03:18.753Z,9.85
2023-01-30T10:05:52.881Z,7.43
2023-01-30T10:08:45.851Z,4.57
2023-01-30T10:11:12.467Z,13.20
2023-01-30T10:13:45.152Z,5.05
2023-01-30T10:16:31.006Z,13.40
2023-01-30T10:19:03.358Z,6.65
2023-01-30T10:21:52.906Z,9.63
2023-01-30T10:24:35.791Z,6.30
2023-01-30T10:27:04.742Z,8.40
2023-01-30T10:29:34.218Z,11.75
2023-01-30T10:32:10.657Z,6.50
2023-01-30T10:34:39.338Z,9.68
2023-01-30T10:37:21.208Z,11.38
2023-01-30T10:40:03.277Z,11.68
2023-01-30T10:42:37.562Z,7.47
2023-01-30T10:45:21.318Z,9.60
2023-01-30T10:48:15.912Z,10.13
2023-01-30T10:50:50.769Z,8.43
2023-01-30T10:53:23.872Z,11.15
2023-01-30T10:56:19.795Z,8.50
2023-01-30T10:58:55.211Z,9.18
2023-01-30T11:01:29.255Z,10.27
2023-01-30T11:04:02.695Z,14.43
2023-01-30T11:06:29.518Z,9.77
2023-01-30T11:08:56.576Z,12.63
2023-01-30T11:11:30.496Z,16.08
2023-01-30T11:14:07.257Z,11.50
2023-01-30T11:16:43.522Z,16.20
2023-01-30T11:19:20.739Z,16.17
2023-01-30T11:21:57.010Z,11.95
2023-01-30T11:24:30.264Z,13.43
2023-01-30T11:27:17.287Z,9.48
2023-01-30T11:29:44.091Z,10.70
2023-01-30T11:32:26.245Z,12.10
2023-01-30T11:35:16.128Z,18.15
2023-01-30T11:37:44.442Z,15.05
2023-01-30T11:40:17.298Z,15.85
2023-01-30T11:42:46.908Z,12.63
2023-01-30T11:45:17.712Z,10.32
2023-01-30T11:47:57.953Z,14.65
2023-01-30T11:50:34.906Z,12.55
2023-01-30T11:53:05.310Z,12.10
2023-01-30T11:55:34.171Z,16.05
2023-01-30T11:58:08.915Z,14.10
2023-01-30T12:00:42.011Z,12.38
2023-01-30T12:03:14.783Z,8.25
2023-01-30T12:05:42.868Z,15.43
2023-01-30T12:08:31.100Z,12.35
2023-01-30T12:11:03.357Z,18.08
2023-01-30T12:13:38.587Z,13.23
2023-01-30T12:16:29.887Z,16.55
2023-01-30T12:19:06.337Z,20.08
2023-01-30T12:21:54.519Z,23.85
2023-01-30T12:24:27.029Z,15.38
2023-01-30T12:26:58.639Z,8.15
2023-01-30T12:29:31.862Z,13.15
2023-01-30T12:32:11.588Z,11.18
2023-01-30T12:34:38.513Z,13.00
2023-01-30T12:37:31.094Z,14.25
2023-01-30T12:40:31.680Z,11.40
2023-01-30T12:43:19.284Z,13.15
2023-01-30T12:46:23.697Z,12.60
2023-01-30T12:49:11.559Z,13.38
2023-01-30T12:51:54.675Z,9.60
2023-01-30T12:54:44.096Z,7.97
2023-01-30T12:57:13.956Z,9.10
2023-01-30T12:59:59.806Z,11.77
2023-01-30T13:02:41.085Z,5.65
2023-01-30T13:05:17.069Z,10.27
2023-01-30T13:08:33.634Z,10.02
2023-01-30T13:11:38.066Z,9.88
2023-01-30T13:14:10.734Z,11.55
2023-01-30T13:16:57.938Z,7.97
2023-01-30T13:19:31.234Z,10.10
2023-01-30T13:22:16.478Z,9.25
2023-01-30T13:25:02.195Z,8.90
2023-01-30T13:27:29.702Z,13.68
2023-01-30T13:29:58.414Z,9.75
2023-01-30T13:32:25.000Z,10.32
2023-01-30T13:34:56.409Z,9.48
2023-01-30T13:37:23.188Z,9.45
2023-01-30T13:39:53.155Z,11.10
2023-01-30T13:42:28.665Z,8.45
2023-01-30T13:44:57.228Z,15.77
2023-01-30T13:47:54.649Z,16.83
2023-01-30T13:50:51.045Z,10.57
2023-01-30T13:53:28.439Z,13.30
2023-01-30T13:55:57.523Z,13.52
2023-01-30T13:58:55.272Z,13.13
2023-01-30T14:01:23.228Z,9.20
2023-01-30T14:03:52.928Z,12.77
2023-01-30T14:06:37.814Z,10.02
2023-01-30T14:09:20.729Z,9.63
2023-01-30T14:11:49.751Z,9.98
2023-01-30T14:14:19.554Z,5.30
2023-01-30T14:16:49.040Z,3.08
2023-01-30T14:19:24.469Z,3.42
2023-01-30T14:21:56.633Z,2.78
2023-01-30T14:24:25.176Z,1.55
2023-01-30T14:26:54.539Z,4.95
2023-01-30T14:29:41.077Z,2.22
2023-01-30T14:32:19.210Z,3.20
2023-01-30T14:35:01.334Z,1.15
2023-01-30T14:37:41.631Z,2.63
2023-01-30T14:40:23.706Z,0.68
2023-01-30T14:43:12.406Z,3.33
2023-01-30T14:45:55.125Z,1.85
2023-01-30T14:48:54.373Z,3.35
2023-01-30T14:51:43.543Z,5.90
2023-01-30T14:54:25.389Z,5.35
2023-01-30T14:56:59.899Z,2.72
2023-01-30T14:59:34.502Z,3.30
2023-01-30T15:02:21.798Z,5.63
2023-01-30T15:05:08.515Z,4.70
2023-01-30T15:07:47.577Z,7.40
2023-01-30T15:10:33.900Z,7.60
2023-01-30T15:13:40.235Z,5.47
2023-01-30T15:16:16.354Z,5.88
2023-01-30T15:19:03.786Z,6.40
2023-01-30T15:21:46.041Z,9.68
2023-01-30T15:24:46.624Z,5.20
2023-01-30T15:27:15.479Z,8.50
2023-01-30T15:30:06.754Z,5.63
2023-01-30T15:32:33.566Z,6.28
2023-01-30T15:35:19.038Z,6.90
2023-01-30T15:37:54.864Z,7.15
2023-01-30T15:40:27.235Z,7.22
2023-01-30T15:43:13.814Z,9.95
2023-01-30T15:45:46.787Z,8.15
2023-01-30T15:48:27.039Z,7.70
2023-01-30T15:50:55.562Z,4.63
2023-01-30T15:53:37.085Z,5.82
2023-01-30T15:56:07.919Z,8.45
2023-01-30T15:58:38.412Z,9.35
2023-01-30T16:01:05.559Z,5.93
2023-01-30T16:03:36.786Z,8.52
2023-01-30T16:06:04.233Z,7.47
2023-01-30T16:08:33.696Z,15.07
2023-01-30T16:11:00.962Z,13.27
2023-01-30T16:13:28.962Z,10.10
2023-01-30T16:16:01.858Z,8.30
2023-01-30T16:18:36.421Z,9.07
2023-01-30T16:21:23.462Z,8.23
2023-01-30T16:24:01.011Z,9.50
2023-01-30T16:26:27.917Z,13.50
2023-01-30T16:29:01.228Z,13.52
2023-01-30T16:31:35.030Z,8.98
2023-01-30T16:34:01.966Z,8.07
2023-01-30T16:36:33.012Z,14.23
2023-01-30T16:39:00.275Z,15.20
2023-01-30T16:41:41.185Z,8.43
2023-01-30T16:44:20.962Z,12.40
2023-01-30T16:47:05.051Z,9.60
2023-01-30T16:49:41.001Z,8.93
2023-01-30T16:52:23.761Z,15.35
2023-01-30T16:54:53.328Z,8.98
2023-01-30T16:57:43.996Z,11.10
2023-01-30T17:00:29.787Z,10.32
2023-01-30T17:03:08.521Z,9.07
2023-01-30T17:05:40.031Z,15.75
2023-01-30T17:08:46.598Z,12.48
2023-01-30T17:11:37.776Z,10.75
2023-01-30T17:14:10.524Z,11.75
2023-01-30T17:16:37.471Z,14.80
2023-01-30T17:19:04.425Z,16.33
2023-01-30T17:21:45.329Z,11.95
2023-01-30T17:24:15.612Z,11.13
2023-01-30T17:26:42.615Z,14.10
2023-01-30T17:29:23.811Z,9.70
2023-01-30T17:31:56.811Z,8.35
2023-01-30T17:34:24.048Z,11.85
2023-01-30T17:36:52.167Z,12.10
2023-01-30T17:39:21.413Z,12.48
2023-01-30T17:41:51.603Z,11.38
2023-01-30T17:44:18.634Z,16.33
2023-01-30T17:46:47.661Z,15.60
2023-01-30T17:49:19.857Z,13.77
2023-01-30T17:51:47.157Z,11.88
2023-01-30T17:54:18.491Z,18.55
2023-01-30T17:56:47.610Z,13.68
2023-01-30T17:59:16.587Z,14.93
2023-01-30T18:01:44.743Z,17.00
2023-01-30T18:04:11.595Z,16.92
2023-01-30T18:06:40.662Z,14.50
2023-01-30T18:09:07.736Z,13.82
2023-01-30T18:11:34.433Z,17.55
2023-01-30T18:14:01.202Z,12.75
2023-01-30T18:16:32.952Z,19.90
2023-01-30T18:19:08.757Z,23.15
2023-01-30T18:21:38.305Z,21.95
2023-01-30T18:24:05.246Z,21.25
2023-01-30T18:26:32.458Z,22.50
2023-01-30T18:28:59.561Z,19.52
2023-01-30T18:31:29.561Z,18.85
2023-01-30T18:33:56.550Z,16.23
2023-01-30T18:36:23.834Z,19.40
2023-01-30T18:38:50.958Z,16.60
2023-01-30T18:41:19.699Z,14.45
2023-01-30T18:43:50.409Z,19.38
2023-01-30T18:46:18.176Z,14.30
2023-01-30T18:48:45.866Z,20.65
2023-01-30T18:51:15.005Z,16.23
2023-01-30T18:53:42.892Z,23.27
2023-01-30T18:56:11.438Z,20.75
2023-01-30T18:58:38.612Z,20.65
2023-01-30T19:01:14.227Z,18.75
2023-01-30T19:03:41.773Z,25.90
2023-01-30T19:06:11.705Z,20.23
2023-01-30T19:08:38.869Z,17.85
2023-01-30T19:11:28.019Z,19.08
2023-01-30T19:13:55.948Z,21.27
2023-01-30T19:16:24.531Z,22.25
2023-01-30T19:18:51.519Z,19.10
2023-01-30T19:21:18.351Z,20.23
2023-01-30T19:23:45.334Z,19.48
2023-01-30T19:26:12.666Z,21.67
2023-01-30T19:28:41.829Z,23.77
2023-01-30T19:31:09.696Z,16.50
2023-01-30T19:33:36.725Z,15.95
2023-01-30T19:36:17.914Z,29.00
2023-01-30T19:38:45.795Z,23.05
2023-01-30T19:41:18.241Z,26.75
2023-01-30T19:43:44.929Z,18.08
2023-01-30T19:46:12.332Z,24.75
2023-01-30T19:48:39.915Z,20.48
2023-01-30T19:51:26.690Z,22.33
2023-01-30T19:53:55.280Z,22.50
2023-01-30T19:56:24.977Z,18.42
2023-01-30T19:58:52.879Z,22.15
2023-01-30T20:01:21.393Z,24.48
2023-01-30T20:03:48.455Z,19.77
2023-01-30T20:06:26.807Z,22.65
2023-01-30T20:09:01.960Z,19.23
2023-01-30T20:11:30.183Z,20.35
2023-01-30T20:13:57.184Z,17.58
2023-01-30T20:16:25.716Z,15.73
2023-01-30T20:18:59.891Z,17.25
2023-01-30T20:21:27.486Z,18.88
2023-01-30T20:23:54.338Z,15.10
2023-01-30T20:26:23.687Z,11.23
2023-01-30T20:28:50.805Z,13.93
2023-01-30T20:31:20.386Z,14.55
2023-01-30T20:33:47.604Z,11.45
2023-01-30T20:36:16.641Z,18.77
2023-01-30T20:38:43.787Z,10.73
2023-01-30T20:41:19.333Z,11.68
2023-01-30T20:43:52.303Z,19.65
2023-01-30T20:46:22.478Z,15.52
2023-01-30T20:48:50.128Z,16.90
2023-01-30T20:51:39.608Z,14.63
2023-01-30T20:54:08.344Z,17.15
2023-01-30T20:56:37.471Z,9.95
2023-01-30T20:59:05.548Z,14.05
2023-01-30T21:01:32.847Z,14.02
2023-01-30T21:04:00.039Z,10.48
2023-01-30T21:06:37.395Z,11.75
2023-01-30T21:09:11.490Z,11.73
2023-01-30T21:11:38.362Z,11.55
2023-01-30T21:14:05.040Z,14.13
2023-01-30T21:16:33.978Z,15.18
2023-01-30T21:19:04.088Z,12.77
2023-01-30T21:21:34.294Z,12.88
2023-01-30T21:24:04.530Z,9.60
2023-01-30T21:26:33.478Z,10.25
2023-01-30T21:29:00.767Z,14.75
2023-01-30T21:31:29.592Z,9.77
2023-01-30T21:33:57.737Z,10.68
2023-01-30T21:36:25.102Z,13.75
2023-01-30T21:39:11.517Z,10.05
2023-01-30T21:41:52.212Z,10.05
2023-01-30T21:44:20.148Z,12.57
2023-01-30T21:46:48.547Z,10.15
2023-01-30T21:49:16.616Z,10.45
2023-01-30T21:51:45.032Z,10.55
2023-01-30T21:54:12.226Z,14.45
2023-01-30T21:56:40.136Z,5.93
2023-01-30T21:59:07.118Z,9.13
2023-01-30T22:01:35.750Z,11.93
2023-01-30T22:04:04.660Z,14.80
2023-01-30T22:06:31.695Z,8.75
2023-01-30T22:09:00.203Z,11.55
2023-01-30T22:11:27.670Z,15.00
2023-01-30T22:13:54.841Z,11.10
2023-01-30T22:16:24.454Z,17.20
2023-01-30T22:18:53.183Z,11.88
2023-01-30T22:21:21.039Z,16.17
2023-01-30T22:23:49.416Z,11.00
2023-01-30T22:26:17.835Z,8.98
2023-01-30T22:28:44.860Z,13.68
2023-01-30T22:31:11.744Z,13.65
2023-01-30T22:33:39.409Z,13.38
2023-01-30T22:36:07.676Z,10.27
2023-01-30T22:38:34.647Z,12.30
2023-01-30T22:41:03.273Z,14.30
2023-01-30T22:43:31.205Z,10.68
2023-01-30T22:46:00.728Z,13.00
2023-01-30T22:48:28.983Z,16.00
2023-01-30T22:51:03.750Z,15.00
2023-01-30T22:53:34.844Z,20.38
2023-01-30T22:56:03.255Z,10.07
2023-01-30T22:58:29.924Z,14.38
2023-01-30T23:01:04.136Z,13.68
2023-01-30T23:03:30.946Z,14.88
2023-01-30T23:05:59.010Z,12.43
2023-01-30T23:08:26.621Z,18.15
2023-01-30T23:10:53.334Z,18.42
2023-01-30T23:13:20.175Z,13.00
2023-01-30T23:15:47.044Z,19.63
2023-01-30T23:18:32.771Z,20.77
2023-01-30T23:20:59.982Z,16.90
2023-01-30T23:23:26.805Z,17.17
2023-01-30T23:25:53.413Z,16.63
2023-01-30T23:28:20.075Z,10.25
2023-01-30T23:30:46.782Z,16.02
2023-01-30T23:33:13.789Z,12.40
2023-01-30T23:35:40.493Z,16.90
2023-01-30T23:38:16.144Z,15.60
2023-01-30T23:40:44.259Z,14.10
2023-01-30T23:43:10.948Z,17.65
2023-01-30T23:45:38.874Z,15.40
2023-01-30T23:48:06.367Z,15.20
2023-01-30T23:50:37.677Z,12.25
2023-01-30T23:53:05.353Z,15.52
2023-01-30T23:55:32.629Z,12.70
2023-01-30T23:58:00.136Z,22.60
